sensor_id;sensor_type;location;lat;lon;timestamp;P1;durP1;ratioP1;P2;durP2;ratioP2
1507;SDS011;745;48.586;10.032;2023-03-14T00:02:11;2.60;;;2.10;;
1507;SDS011;745;48.586;10.032;2023-03-14T00:06:42;3.20;;;2.73;;
1507;SDS011;745;48.586;10.032;2023-03-14T00:11:13;3.80;;;2.93;;
1507;SDS011;745;48.586;10.032;2023-03-14T00:15:46;2.80;;;2.10;;
1507;SDS011;745;48.586;10.032;2023-03-14T00:20:16;2.10;;;1.90;;
1507;SDS011;745;48.586;10.032;2023-03-14T00:24:47;2.90;;;2.33;;
1507;SDS011;745;48.586;10.032;2023-03-14T00:29:17;2.23;;;2.03;;
1507;SDS011;745;48.586;10.032;2023-03-14T00:33:47;1.83;;;1.70;;
1507;SDS011;745;48.586;10.032;2023-03-14T00:38:18;2.00;;;1.63;;
1507;SDS011;745;48.586;10.032;2023-03-14T00:42:48;1.77;;;1.67;;
1507;SDS011;745;48.586;10.032;2023-03-14T00:47:19;2.47;;;2.10;;
1507;SDS011;745;48.586;10.032;2023-03-14T00:51:49;1.93;;;1.50;;
1507;SDS011;745;48.586;10.032;2023-03-14T00:56:21;1.53;;;1.40;;
1507;SDS011;745;48.586;10.032;2023-03-14T01:00:51;4.73;;;1.20;;
1507;SDS011;745;48.586;10.032;2023-03-14T01:05:22;1.30;;;1.20;;
1507;SDS011;745;48.586;10.032;2023-03-14T01:09:52;1.00;;;0.93;;
1507;SDS011;745;48.586;10.032;2023-03-14T01:14:23;1.00;;;1.00;;
1507;SDS011;745;48.586;10.032;2023-03-14T01:18:53;1.10;;;1.00;;
1507;SDS011;745;48.586;10.032;2023-03-14T01:23:24;1.00;;;1.00;;
1507;SDS011;745;48.586;10.032;2023-03-14T01:27:54;1.20;;;1.10;;
1507;SDS011;745;48.586;10.032;2023-03-14T01:32:25;0.80;;;0.80;;
1507;SDS011;745;48.586;10.032;2023-03-14T01:36:55;0.80;;;0.80;;
1507;SDS011;745;48.586;10.032;2023-03-14T01:41:25;0.80;;;0.80;;
1507;SDS011;745;48.586;10.032;2023-03-14T01:50:35;0.90;;;0.90;;
1507;SDS011;745;48.586;10.032;2023-03-14T01:55:06;0.90;;;0.90;;
1507;SDS011;745;48.586;10.032;2023-03-14T01:59:39;0.93;;;0.93;;
1507;SDS011;745;48.586;10.032;2023-03-14T02:04:11;1.10;;;1.00;;
1507;SDS011;745;48.586;10.032;2023-03-14T02:08:42;1.20;;;1.10;;
1507;SDS011;745;48.586;10.032;2023-03-14T02:13:14;1.10;;;1.00;;
1507;SDS011;745;48.586;10.032;2023-03-14T02:17:45;3.77;;;1.10;;
1507;SDS011;745;48.586;10.032;2023-03-14T02:22:16;1.03;;;0.93;;
1507;SDS011;745;48.586;10.032;2023-03-14T02:31:32;0.90;;;0.90;;
1507;SDS011;745;48.586;10.032;2023-03-14T02:36:07;1.10;;;1.00;;
1507;SDS011;745;48.586;10.032;2023-03-14T02:40:39;0.93;;;0.93;;
1507;SDS011;745;48.586;10.032;2023-03-14T02:49:40;0.93;;;0.93;;
1507;SDS011;745;48.586;10.032;2023-03-14T02:54:10;1.17;;;1.07;;
1507;SDS011;745;48.586;10.032;2023-03-14T02:58:41;1.30;;;1.20;;
1507;SDS011;745;48.586;10.032;2023-03-14T03:03:11;1.80;;;1.20;;
1507;SDS011;745;48.586;10.032;2023-03-14T03:07:42;1.73;;;1.30;;
1507;SDS011;745;48.586;10.032;2023-03-14T03:12:12;1.73;;;1.40;;
1507;SDS011;745;48.586;10.032;2023-03-14T03:16:43;2.00;;;1.50;;
1507;SDS011;745;48.586;10.032;2023-03-14T03:21:13;1.27;;;1.17;;
1507;SDS011;745;48.586;10.032;2023-03-14T03:25:50;1.33;;;1.23;;
1507;SDS011;745;48.586;10.032;2023-03-14T03:30:21;2.30;;;1.10;;
1507;SDS011;745;48.586;10.032;2023-03-14T03:34:51;1.30;;;1.20;;
1507;SDS011;745;48.586;10.032;2023-03-14T03:39:22;1.40;;;1.30;;
1507;SDS011;745;48.586;10.032;2023-03-14T03:43:52;1.37;;;1.27;;
1507;SDS011;745;48.586;10.032;2023-03-14T03:48:24;1.40;;;1.30;;
1507;SDS011;745;48.586;10.032;2023-03-14T03:52:54;1.30;;;1.20;;
1507;SDS011;745;48.586;10.032;2023-03-14T03:57:24;1.37;;;1.27;;
1507;SDS011;745;48.586;10.032;2023-03-14T04:01:55;1.67;;;1.30;;
1507;SDS011;745;48.586;10.032;2023-03-14T04:06:25;1.40;;;1.30;;
1507;SDS011;745;48.586;10.032;2023-03-14T04:10:59;1.47;;;1.37;;
1507;SDS011;745;48.586;10.032;2023-03-14T04:15:30;1.87;;;1.77;;
1507;SDS011;745;48.586;10.032;2023-03-14T04:20:00;2.27;;;2.07;;
1507;SDS011;745;48.586;10.032;2023-03-14T04:24:31;2.87;;;2.43;;
1507;SDS011;745;48.586;10.032;2023-03-14T04:29:01;2.97;;;2.23;;
1507;SDS011;745;48.586;10.032;2023-03-14T04:33:32;3.40;;;3.10;;
1507;SDS011;745;48.586;10.032;2023-03-14T04:38:03;3.80;;;2.90;;
1507;SDS011;745;48.586;10.032;2023-03-14T04:42:33;3.03;;;2.83;;
1507;SDS011;745;48.586;10.032;2023-03-14T04:47:04;2.63;;;2.43;;
1507;SDS011;745;48.586;10.032;2023-03-14T04:51:34;2.60;;;2.40;;
1507;SDS011;745;48.586;10.032;2023-03-14T04:56:05;2.70;;;2.50;;
1507;SDS011;745;48.586;10.032;2023-03-14T05:00:35;3.20;;;2.90;;
1507;SDS011;745;48.586;10.032;2023-03-14T05:05:06;6.20;;;4.30;;
1507;SDS011;745;48.586;10.032;2023-03-14T05:09:36;8.57;;;4.70;;
1507;SDS011;745;48.586;10.032;2023-03-14T05:14:07;3.00;;;2.57;;
1507;SDS011;745;48.586;10.032;2023-03-14T05:18:38;2.50;;;2.30;;
1507;SDS011;745;48.586;10.032;2023-03-14T05:23:08;7.33;;;4.43;;
1507;SDS011;745;48.586;10.032;2023-03-14T05:27:39;17.70;;;9.83;;
1507;SDS011;745;48.586;10.032;2023-03-14T05:32:10;6.87;;;4.60;;
1507;SDS011;745;48.586;10.032;2023-03-14T05:36:40;4.67;;;3.10;;
1507;SDS011;745;48.586;10.032;2023-03-14T05:41:10;3.13;;;2.93;;
1507;SDS011;745;48.586;10.032;2023-03-14T05:45:41;3.70;;;2.30;;
1507;SDS011;745;48.586;10.032;2023-03-14T05:50:12;3.40;;;2.90;;
1507;SDS011;745;48.586;10.032;2023-03-14T05:54:42;2.30;;;2.10;;
1507;SDS011;745;48.586;10.032;2023-03-14T05:59:12;2.10;;;1.90;;
1507;SDS011;745;48.586;10.032;2023-03-14T06:03:44;2.60;;;2.40;;
1507;SDS011;745;48.586;10.032;2023-03-14T06:08:15;2.90;;;2.50;;
1507;SDS011;745;48.586;10.032;2023-03-14T06:12:45;3.40;;;2.63;;
1507;SDS011;745;48.586;10.032;2023-03-14T06:17:16;2.60;;;2.40;;
1507;SDS011;745;48.586;10.032;2023-03-14T06:21:46;3.30;;;3.00;;
1507;SDS011;745;48.586;10.032;2023-03-14T06:26:17;2.80;;;2.20;;
1507;SDS011;745;48.586;10.032;2023-03-14T06:30:47;3.10;;;2.47;;
1507;SDS011;745;48.586;10.032;2023-03-14T06:35:18;2.53;;;2.30;;
1507;SDS011;745;48.586;10.032;2023-03-14T06:39:48;4.73;;;3.33;;
1507;SDS011;745;48.586;10.032;2023-03-14T06:44:19;6.10;;;5.20;;
1507;SDS011;745;48.586;10.032;2023-03-14T06:48:49;2.83;;;2.63;;
1507;SDS011;745;48.586;10.032;2023-03-14T06:53:20;3.87;;;2.00;;
1507;SDS011;745;48.586;10.032;2023-03-14T06:57:50;1.67;;;1.57;;
1507;SDS011;745;48.586;10.032;2023-03-14T07:02:20;1.93;;;1.50;;
1507;SDS011;745;48.586;10.032;2023-03-14T07:06:52;1.67;;;1.50;;
1507;SDS011;745;48.586;10.032;2023-03-14T07:11:23;2.30;;;1.77;;
1507;SDS011;745;48.586;10.032;2023-03-14T07:15:53;1.90;;;1.67;;
1507;SDS011;745;48.586;10.032;2023-03-14T07:20:24;2.37;;;1.70;;
1507;SDS011;745;48.586;10.032;2023-03-14T07:24:54;3.03;;;1.80;;
1507;SDS011;745;48.586;10.032;2023-03-14T07:29:25;1.40;;;1.30;;
1507;SDS011;745;48.586;10.032;2023-03-14T07:33:55;1.70;;;1.30;;
1507;SDS011;745;48.586;10.032;2023-03-14T07:38:26;3.37;;;2.10;;
1507;SDS011;745;48.586;10.032;2023-03-14T07:42:56;3.73;;;2.27;;
1507;SDS011;745;48.586;10.032;2023-03-14T07:47:27;2.97;;;1.60;;
1507;SDS011;745;48.586;10.032;2023-03-14T07:51:57;1.57;;;1.30;;
1507;SDS011;745;48.586;10.032;2023-03-14T07:56:29;3.57;;;1.60;;
1507;SDS011;745;48.586;10.032;2023-03-14T08:00:59;1.30;;;1.20;;
1507;SDS011;745;48.586;10.032;2023-03-14T08:05:30;1.40;;;1.27;;
1507;SDS011;745;48.586;10.032;2023-03-14T08:10:00;2.27;;;1.40;;
1507;SDS011;745;48.586;10.032;2023-03-14T08:14:34;1.83;;;1.30;;
1507;SDS011;745;48.586;10.032;2023-03-14T08:19:04;1.50;;;1.40;;
1507;SDS011;745;48.586;10.032;2023-03-14T08:23:34;2.00;;;1.80;;
1507;SDS011;745;48.586;10.032;2023-03-14T08:28:05;2.03;;;1.90;;
1507;SDS011;745;48.586;10.032;2023-03-14T08:32:35;2.00;;;1.80;;
1507;SDS011;745;48.586;10.032;2023-03-14T08:37:06;1.40;;;1.30;;
1507;SDS011;745;48.586;10.032;2023-03-14T08:41:36;1.63;;;1.40;;
1507;SDS011;745;48.586;10.032;2023-03-14T08:46:10;1.23;;;1.13;;
1507;SDS011;745;48.586;10.032;2023-03-14T08:50:40;2.10;;;1.10;;
1507;SDS011;745;48.586;10.032;2023-03-14T08:55:11;1.20;;;1.10;;
1507;SDS011;745;48.586;10.032;2023-03-14T08:59:41;1.37;;;1.17;;
1507;SDS011;745;48.586;10.032;2023-03-14T09:04:12;1.27;;;1.00;;
1507;SDS011;745;48.586;10.032;2023-03-14T09:08:42;1.47;;;1.20;;
1507;SDS011;745;48.586;10.032;2023-03-14T09:13:12;1.33;;;1.10;;
1507;SDS011;745;48.586;10.032;2023-03-14T09:17:43;1.10;;;0.90;;
1507;SDS011;745;48.586;10.032;2023-03-14T09:22:14;1.93;;;1.10;;
1507;SDS011;745;48.586;10.032;2023-03-14T09:26:44;1.30;;;1.20;;
1507;SDS011;745;48.586;10.032;2023-03-14T09:31:14;1.10;;;1.00;;
1507;SDS011;745;48.586;10.032;2023-03-14T09:35:45;1.10;;;1.00;;
1507;SDS011;745;48.586;10.032;2023-03-14T09:40:16;1.30;;;1.17;;
1507;SDS011;745;48.586;10.032;2023-03-14T09:49:28;1.23;;;1.10;;
1507;SDS011;745;48.586;10.032;2023-03-14T09:54:03;2.20;;;1.20;;
1507;SDS011;745;48.586;10.032;2023-03-14T09:58:35;1.13;;;1.03;;
1507;SDS011;745;48.586;10.032;2023-03-14T10:07:36;1.43;;;1.33;;
1507;SDS011;745;48.586;10.032;2023-03-14T10:12:08;2.40;;;1.20;;
1507;SDS011;745;48.586;10.032;2023-03-14T10:16:42;1.50;;;1.30;;
1507;SDS011;745;48.586;10.032;2023-03-14T10:30:39;1.10;;;1.00;;
1507;SDS011;745;48.586;10.032;2023-03-14T10:39:48;0.90;;;0.80;;
1507;SDS011;745;48.586;10.032;2023-03-14T10:44:23;1.00;;;0.90;;
1507;SDS011;745;48.586;10.032;2023-03-14T10:48:55;1.10;;;1.00;;
1507;SDS011;745;48.586;10.032;2023-03-14T10:53:26;0.93;;;0.83;;
1507;SDS011;745;48.586;10.032;2023-03-14T10:57:57;1.10;;;1.00;;
1507;SDS011;745;48.586;10.032;2023-03-14T11:11:37;1.20;;;1.00;;
1507;SDS011;745;48.586;10.032;2023-03-14T11:21:20;0.80;;;0.80;;
1507;SDS011;745;48.586;10.032;2023-03-14T11:26:13;3.80;;;0.90;;
1507;SDS011;745;48.586;10.032;2023-03-14T11:30:52;0.90;;;0.80;;
1507;SDS011;745;48.586;10.032;2023-03-14T11:35:29;1.03;;;0.80;;
1507;SDS011;745;48.586;10.032;2023-03-14T11:44:53;1.10;;;1.00;;
1507;SDS011;745;48.586;10.032;2023-03-14T11:49:41;1.00;;;0.90;;
1507;SDS011;745;48.586;10.032;2023-03-14T11:54:16;1.00;;;0.80;;
1507;SDS011;745;48.586;10.032;2023-03-14T11:59:07;0.90;;;0.90;;
1507;SDS011;745;48.586;10.032;2023-03-14T12:03:46;1.00;;;0.90;;
1507;SDS011;745;48.586;10.032;2023-03-14T12:08:38;1.07;;;0.97;;
1507;SDS011;745;48.586;10.032;2023-03-14T12:13:12;1.00;;;0.80;;
1507;SDS011;745;48.586;10.032;2023-03-14T12:17:44;0.80;;;0.80;;
1507;SDS011;745;48.586;10.032;2023-03-14T12:26:58;0.90;;;0.83;;
1507;SDS011;745;48.586;10.032;2023-03-14T12:36:01;1.67;;;0.90;;
1507;SDS011;745;48.586;10.032;2023-03-14T12:40:35;1.00;;;0.90;;
1507;SDS011;745;48.586;10.032;2023-03-14T12:45:22;1.07;;;0.80;;
1507;SDS011;745;48.586;10.032;2023-03-14T12:49:53;1.00;;;0.93;;
1507;SDS011;745;48.586;10.032;2023-03-14T12:54:39;3.30;;;1.10;;
1507;SDS011;745;48.586;10.032;2023-03-14T12:59:32;1.73;;;1.03;;
1507;SDS011;745;48.586;10.032;2023-03-14T13:04:04;1.90;;;1.20;;
1507;SDS011;745;48.586;10.032;2023-03-14T13:17:53;1.03;;;0.93;;
1507;SDS011;745;48.586;10.032;2023-03-14T13:22:26;1.00;;;0.93;;
1507;SDS011;745;48.586;10.032;2023-03-14T13:26:57;1.17;;;1.07;;
1507;SDS011;745;48.586;10.032;2023-03-14T13:31:28;1.27;;;1.10;;
1507;SDS011;745;48.586;10.032;2023-03-14T13:36:01;0.90;;;0.90;;
1507;SDS011;745;48.586;10.032;2023-03-14T13:40:33;1.47;;;1.10;;
1507;SDS011;745;48.586;10.032;2023-03-14T13:45:04;1.33;;;1.10;;
1507;SDS011;745;48.586;10.032;2023-03-14T13:49:35;2.47;;;1.83;;
1507;SDS011;745;48.586;10.032;2023-03-14T13:54:14;1.50;;;1.40;;
1507;SDS011;745;48.586;10.032;2023-03-14T13:58:46;1.80;;;1.17;;
1507;SDS011;745;48.586;10.032;2023-03-14T14:03:16;1.20;;;1.10;;
1507;SDS011;745;48.586;10.032;2023-03-14T14:07:48;1.17;;;1.07;;
1507;SDS011;745;48.586;10.032;2023-03-14T14:12:21;1.93;;;1.40;;
1507;SDS011;745;48.586;10.032;2023-03-14T14:16:57;1.77;;;1.30;;
1507;SDS011;745;48.586;10.032;2023-03-14T14:21:28;2.10;;;1.00;;
1507;SDS011;745;48.586;10.032;2023-03-14T14:25:59;3.23;;;2.10;;
1507;SDS011;745;48.586;10.032;2023-03-14T14:30:31;1.93;;;1.50;;
1507;SDS011;745;48.586;10.032;2023-03-14T14:35:03;1.60;;;1.30;;
1507;SDS011;745;48.586;10.032;2023-03-14T14:39:34;1.97;;;1.70;;
1507;SDS011;745;48.586;10.032;2023-03-14T14:44:04;1.77;;;1.40;;
1507;SDS011;745;48.586;10.032;2023-03-14T14:48:36;1.83;;;1.30;;
1507;SDS011;745;48.586;10.032;2023-03-14T14:57:55;1.97;;;1.40;;
1507;SDS011;745;48.586;10.032;2023-03-14T15:07:15;2.13;;;1.50;;
1507;SDS011;745;48.586;10.032;2023-03-14T15:11:46;2.67;;;1.73;;
1507;SDS011;745;48.586;10.032;2023-03-14T15:16:17;2.20;;;1.40;;
1507;SDS011;745;48.586;10.032;2023-03-14T15:20:49;3.20;;;1.50;;
1507;SDS011;745;48.586;10.032;2023-03-14T15:25:20;2.40;;;1.57;;
1507;SDS011;745;48.586;10.032;2023-03-14T15:29:50;2.03;;;1.40;;
1507;SDS011;745;48.586;10.032;2023-03-14T15:34:21;2.80;;;1.70;;
1507;SDS011;745;48.586;10.032;2023-03-14T15:38:51;1.53;;;1.13;;
1507;SDS011;745;48.586;10.032;2023-03-14T15:43:22;1.63;;;1.20;;
1507;SDS011;745;48.586;10.032;2023-03-14T15:47:53;1.97;;;1.17;;
1507;SDS011;745;48.586;10.032;2023-03-14T15:52:23;4.87;;;1.60;;
1507;SDS011;745;48.586;10.032;2023-03-14T15:56:54;2.07;;;1.37;;
1507;SDS011;745;48.586;10.032;2023-03-14T16:01:25;3.87;;;1.30;;
1507;SDS011;745;48.586;10.032;2023-03-14T16:05:56;2.80;;;1.30;;
1507;SDS011;745;48.586;10.032;2023-03-14T16:10:26;1.80;;;1.30;;
1507;SDS011;745;48.586;10.032;2023-03-14T16:14:57;6.23;;;1.40;;
1507;SDS011;745;48.586;10.032;2023-03-14T16:19:28;3.47;;;1.30;;
1507;SDS011;745;48.586;10.032;2023-03-14T16:24:00;3.50;;;1.40;;
1507;SDS011;745;48.586;10.032;2023-03-14T16:28:32;1.57;;;1.40;;
1507;SDS011;745;48.586;10.032;2023-03-14T16:33:02;2.93;;;1.40;;
1507;SDS011;745;48.586;10.032;2023-03-14T16:37:37;4.30;;;1.67;;
1507;SDS011;745;48.586;10.032;2023-03-14T16:42:07;1.50;;;1.40;;
1507;SDS011;745;48.586;10.032;2023-03-14T16:46:38;4.43;;;1.60;;
1507;SDS011;745;48.586;10.032;2023-03-14T16:51:08;2.60;;;1.57;;
1507;SDS011;745;48.586;10.032;2023-03-14T16:55:39;3.53;;;1.77;;
1507;SDS011;745;48.586;10.032;2023-03-14T17:00:13;2.50;;;1.47;;
1507;SDS011;745;48.586;10.032;2023-03-14T17:04:44;2.70;;;1.73;;
1507;SDS011;745;48.586;10.032;2023-03-14T17:09:14;3.10;;;1.50;;
1507;SDS011;745;48.586;10.032;2023-03-14T17:13:44;1.47;;;1.30;;
1507;SDS011;745;48.586;10.032;2023-03-14T17:18:15;2.37;;;1.50;;
1507;SDS011;745;48.586;10.032;2023-03-14T17:22:45;2.10;;;1.60;;
1507;SDS011;745;48.586;10.032;2023-03-14T17:27:15;2.97;;;1.47;;
1507;SDS011;745;48.586;10.032;2023-03-14T17:31:49;4.60;;;1.77;;
1507;SDS011;745;48.586;10.032;2023-03-14T17:36:19;6.87;;;4.10;;
1507;SDS011;745;48.586;10.032;2023-03-14T17:40:51;7.07;;;5.20;;
1507;SDS011;745;48.586;10.032;2023-03-14T17:45:22;5.87;;;4.90;;
1507;SDS011;745;48.586;10.032;2023-03-14T17:49:52;7.53;;;6.07;;
1507;SDS011;745;48.586;10.032;2023-03-14T17:54:23;5.90;;;5.30;;
1507;SDS011;745;48.586;10.032;2023-03-14T17:58:55;6.57;;;4.10;;
1507;SDS011;745;48.586;10.032;2023-03-14T18:03:26;3.70;;;3.37;;
1507;SDS011;745;48.586;10.032;2023-03-14T18:07:56;5.97;;;3.90;;
1507;SDS011;745;48.586;10.032;2023-03-14T18:12:27;6.23;;;5.00;;
1507;SDS011;745;48.586;10.032;2023-03-14T18:16:57;2.33;;;2.13;;
1507;SDS011;745;48.586;10.032;2023-03-14T18:21:28;4.10;;;1.70;;
1507;SDS011;745;48.586;10.032;2023-03-14T18:25:59;7.13;;;2.37;;
1507;SDS011;745;48.586;10.032;2023-03-14T18:30:30;3.40;;;1.90;;
1507;SDS011;745;48.586;10.032;2023-03-14T18:35:00;9.20;;;2.43;;
1507;SDS011;745;48.586;10.032;2023-03-14T18:39:31;4.17;;;2.17;;
1507;SDS011;745;48.586;10.032;2023-03-14T18:44:02;3.70;;;2.50;;
1507;SDS011;745;48.586;10.032;2023-03-14T18:48:32;2.77;;;2.50;;
1507;SDS011;745;48.586;10.032;2023-03-14T18:53:03;3.13;;;2.70;;
1507;SDS011;745;48.586;10.032;2023-03-14T18:57:33;2.33;;;1.97;;
1507;SDS011;745;48.586;10.032;2023-03-14T19:02:04;3.97;;;3.30;;
1507;SDS011;745;48.586;10.032;2023-03-14T19:06:34;4.50;;;3.13;;
1507;SDS011;745;48.586;10.032;2023-03-14T19:11:06;3.20;;;2.90;;
1507;SDS011;745;48.586;10.032;2023-03-14T19:15:37;3.80;;;2.83;;
1507;SDS011;745;48.586;10.032;2023-03-14T19:20:08;6.10;;;4.20;;
1507;SDS011;745;48.586;10.032;2023-03-14T19:24:38;4.73;;;2.50;;
1507;SDS011;745;48.586;10.032;2023-03-14T19:29:09;3.63;;;2.13;;
1507;SDS011;745;48.586;10.032;2023-03-14T19:33:40;1.97;;;1.77;;
1507;SDS011;745;48.586;10.032;2023-03-14T19:38:11;1.50;;;1.40;;
1507;SDS011;745;48.586;10.032;2023-03-14T19:42:43;1.43;;;1.33;;
1507;SDS011;745;48.586;10.032;2023-03-14T19:47:13;1.80;;;1.60;;
1507;SDS011;745;48.586;10.032;2023-03-14T19:51:44;1.70;;;1.57;;
1507;SDS011;745;48.586;10.032;2023-03-14T19:56:14;2.83;;;1.53;;
1507;SDS011;745;48.586;10.032;2023-03-14T20:00:44;2.27;;;1.70;;
1507;SDS011;745;48.586;10.032;2023-03-14T20:05:15;1.77;;;1.60;;
1507;SDS011;745;48.586;10.032;2023-03-14T20:09:46;6.13;;;1.70;;
1507;SDS011;745;48.586;10.032;2023-03-14T20:14:16;4.70;;;1.80;;
1507;SDS011;745;48.586;10.032;2023-03-14T20:18:47;4.70;;;1.53;;
1507;SDS011;745;48.586;10.032;2023-03-14T20:23:17;1.93;;;1.70;;
1507;SDS011;745;48.586;10.032;2023-03-14T20:27:48;1.70;;;1.60;;
1507;SDS011;745;48.586;10.032;2023-03-14T20:32:20;3.00;;;1.53;;
1507;SDS011;745;48.586;10.032;2023-03-14T20:36:51;3.10;;;1.50;;
1507;SDS011;745;48.586;10.032;2023-03-14T20:41:24;1.70;;;1.53;;
1507;SDS011;745;48.586;10.032;2023-03-14T20:45:55;1.80;;;1.50;;
1507;SDS011;745;48.586;10.032;2023-03-14T20:50:29;2.30;;;1.60;;
1507;SDS011;745;48.586;10.032;2023-03-14T20:55:00;2.30;;;1.60;;
1507;SDS011;745;48.586;10.032;2023-03-14T20:59:30;3.80;;;2.03;;
1507;SDS011;745;48.586;10.032;2023-03-14T21:04:01;1.70;;;1.60;;
1507;SDS011;745;48.586;10.032;2023-03-14T21:08:31;3.27;;;1.70;;
1507;SDS011;745;48.586;10.032;2023-03-14T21:13:02;2.60;;;1.40;;
1507;SDS011;745;48.586;10.032;2023-03-14T21:17:32;2.00;;;1.60;;
1507;SDS011;745;48.586;10.032;2023-03-14T21:22:03;1.50;;;1.40;;
1507;SDS011;745;48.586;10.032;2023-03-14T21:26:34;3.03;;;1.80;;
1507;SDS011;745;48.586;10.032;2023-03-14T21:31:05;4.20;;;1.73;;
1507;SDS011;745;48.586;10.032;2023-03-14T21:35:36;2.80;;;1.90;;
1507;SDS011;745;48.586;10.032;2023-03-14T21:40:07;4.87;;;2.10;;
1507;SDS011;745;48.586;10.032;2023-03-14T21:44:38;2.70;;;1.67;;
1507;SDS011;745;48.586;10.032;2023-03-14T21:49:13;5.73;;;1.63;;
1507;SDS011;745;48.586;10.032;2023-03-14T21:53:44;2.90;;;1.80;;
1507;SDS011;745;48.586;10.032;2023-03-14T21:58:14;4.80;;;1.57;;
1507;SDS011;745;48.586;10.032;2023-03-14T22:02:45;2.73;;;1.67;;
1507;SDS011;745;48.586;10.032;2023-03-14T22:07:17;2.10;;;1.80;;
1507;SDS011;745;48.586;10.032;2023-03-14T22:11:47;1.90;;;1.50;;
1507;SDS011;745;48.586;10.032;2023-03-14T22:16:17;2.90;;;2.70;;
1507;SDS011;745;48.586;10.032;2023-03-14T22:20:48;5.17;;;2.47;;
1507;SDS011;745;48.586;10.032;2023-03-14T22:25:18;3.50;;;2.70;;
1507;SDS011;745;48.586;10.032;2023-03-14T22:29:48;6.37;;;4.33;;
1507;SDS011;745;48.586;10.032;2023-03-14T22:34:19;6.60;;;4.73;;
1507;SDS011;745;48.586;10.032;2023-03-14T22:38:50;6.47;;;4.40;;
1507;SDS011;745;48.586;10.032;2023-03-14T22:43:20;26.97;;;12.80;;
1507;SDS011;745;48.586;10.032;2023-03-14T22:47:50;10.53;;;5.40;;
1507;SDS011;745;48.586;10.032;2023-03-14T22:52:21;3.00;;;2.70;;
1507;SDS011;745;48.586;10.032;2023-03-14T22:56:51;2.83;;;2.63;;
1507;SDS011;745;48.586;10.032;2023-03-14T23:01:22;2.47;;;2.27;;
1507;SDS011;745;48.586;10.032;2023-03-14T23:05:52;2.40;;;2.23;;
1507;SDS011;745;48.586;10.032;2023-03-14T23:10:23;2.50;;;2.30;;
1507;SDS011;745;48.586;10.032;2023-03-14T23:14:53;2.87;;;2.67;;
1507;SDS011;745;48.586;10.032;2023-03-14T23:19:24;3.10;;;2.37;;
1507;SDS011;745;48.586;10.032;2023-03-14T23:23:58;3.20;;;3.00;;
1507;SDS011;745;48.586;10.032;2023-03-14T23:28:28;3.07;;;2.77;;
1507;SDS011;745;48.586;10.032;2023-03-14T23:32:58;2.13;;;2.03;;
1507;SDS011;745;48.586;10.032;2023-03-14T23:37:29;3.60;;;2.50;;
1507;SDS011;745;48.586;10.032;2023-03-14T23:42:00;2.87;;;2.63;;
1507;SDS011;745;48.586;10.032;2023-03-14T23:46:31;2.90;;;2.60;;
1507;SDS011;745;48.586;10.032;2023-03-14T23:51:02;2.50;;;2.30;;
1507;SDS011;745;48.586;10.032;2023-03-14T23:55:33;3.73;;;3.20;;
